Time;durP1;ratioP1;P1;durP2;ratioP2;P2;SDS_P1;SDS_P2;PMS_P1;PMS_P2;Temp;Humidity;BMP_temperature;BMP_pressure;BME280_temperature;BME280_humidity;BME280_pressure;Samples;Min_cycle;Max_cycle;Signal;HPM_P1;HPM_P2
2024/04/18 00:02:07;;;;;;;;;;;7.50;99.90;;;7.86;71.87;100166.38;5520450;26;19928;-82
2024/04/18 00:04:36;;;;;;;;;;;7.50;99.90;;;7.80;71.84;100159.19;5530320;26;20348;-82
2024/04/18 00:07:04;;;;;;;;;;;7.40;99.90;;;7.80;72.00;100164.50;5529167;26;20387;-83
2024/04/18 00:09:32;;;;;;;;;;;7.40;99.90;;;7.80;72.11;100159.19;5530876;26;19927;-81
2024/04/18 00:12:01;;;;;;;;;;;7.40;99.90;;;7.80;71.90;100170.63;5531338;25;19928;-81
2024/04/18 00:14:47;;;;;;;;;;;7.40;99.90;;;7.78;71.72;100178.00;5530986;25;19932;-81
2024/04/18 00:17:16;;;;;;;;;;;7.40;99.90;;;7.80;71.82;100175.13;5529050;26;20334;-82
2024/04/18 00:19:45;;;;;;;;;;;7.40;99.90;;;7.81;71.78;100172.28;5531373;25;19927;-81
2024/04/18 00:22:32;;;;;;;;;;;7.40;99.90;;;7.81;72.35;100171.44;5531614;26;19982;-81
2024/04/18 00:25:06;;;;;;;;;;;7.40;99.90;;;7.79;72.43;100173.50;5530735;26;19931;-82
2024/04/18 00:27:56;;;;;;;;;;;7.40;99.90;;;7.79;72.66;100178.81;5530881;25;19935;-81
2024/04/18 00:30:38;;;;;;;;;;;7.40;99.90;;;7.78;72.72;100180.66;5496388;25;19928;-82
2024/04/18 00:33:07;;;;;;;;;;;7.40;99.90;;;7.80;72.83;100177.78;5515360;26;19934;-82
2024/04/18 00:35:39;;;;;;;;;;;7.40;99.90;;;7.82;72.62;100184.53;5531247;25;19928;-82
2024/04/18 00:38:14;;;;;;;;;;;7.40;99.90;;;7.81;72.88;100185.56;5531530;26;19928;-81
2024/04/18 00:40:40;;;;;;;;;;;7.40;99.90;;;7.81;73.29;100188.22;5531036;26;19927;-82
2024/04/18 00:43:24;;;;;;;;;;;7.40;99.90;;;7.82;73.20;100189.03;5530429;25;19943;-81
2024/04/18 00:45:50;;;;;;;;;;;7.50;99.90;;;7.83;73.05;100191.47;5529926;26;19959;-81
2024/04/18 00:48:22;;;;;;;;;;;7.50;99.90;;;7.84;73.17;100193.09;5530147;26;19973;-82
2024/04/18 00:50:49;;;;;;;;;;;7.50;99.90;;;7.85;73.39;100188.63;5530097;25;20020;-82
2024/04/18 00:53:20;;;;;;;;;;;7.50;99.90;;;7.86;73.13;100195.59;5528765;26;19928;-82
2024/04/18 00:55:50;;;;;;;;;;;7.50;99.90;;;7.87;73.40;100202.53;5530487;26;20391;-81
2024/04/18 00:58:19;;;;;;;;;;;7.50;99.90;;;7.87;73.25;100202.53;5529943;25;19935;-81
2024/04/18 01:00:49;;;;;;;;;;;7.50;99.90;;;7.87;73.43;100200.69;5530587;25;19934;-81
2024/04/18 01:03:37;;;;;;;;;;;7.50;99.90;;;7.88;73.28;100201.50;5530265;26;19960;-82
2024/04/18 01:06:07;;;;;;;;;;;7.50;99.90;;;7.88;73.06;100201.50;5530334;25;19934;-81
2024/04/18 01:08:55;;;;;;;;;;;7.60;99.90;;;7.89;73.08;100201.28;5532386;26;19934;-81
2024/04/18 01:11:30;;;;;;;;;;;7.90;99.90;;;7.88;73.18;100212.94;5528254;26;19928;-81
2024/04/18 01:14:01;;;;;;;;;;;7.60;99.90;;;7.89;73.37;100211.09;5528166;26;19927;-82
2024/04/18 01:16:50;;;;;;;;;;;7.60;99.90;;;7.88;73.20;100210.28;5529133;26;19927;-81
2024/04/18 01:19:21;;;;;;;;;;;7.60;99.90;;;7.88;73.31;100217.44;5529604;26;19928;-81
2024/04/18 01:21:47;;;;;;;;;;;7.50;99.90;;;7.87;73.62;100210.50;5528943;26;19928;-81
2024/04/18 01:24:16;;;;;;;;;;;7.60;99.90;;;7.85;73.48;100207.19;5529515;26;19995;-82
2024/04/18 01:26:44;;;;;;;;;;;7.50;99.90;;;7.85;73.85;100220.47;5529533;25;19927;-82
2024/04/18 01:29:13;;;;;;;;;;;7.50;99.90;;;7.84;73.16;100208.22;5529991;25;19928;-82
2024/04/18 01:31:58;;;;;;;;;;;7.50;99.90;;;7.81;73.20;100214.78;5530333;26;19995;-82
2024/04/18 01:34:27;;;;;;;;;;;7.50;99.90;;;7.83;73.62;100222.53;5529252;26;19935;-82
2024/04/18 01:37:12;;;;;;;;;;;7.50;99.90;;;7.82;73.35;100224.38;5530862;26;20385;-81
2024/04/18 01:39:40;;;;;;;;;;;7.50;99.90;;;7.80;73.38;100225.56;5529559;25;20266;-81
2024/04/18 01:42:10;;;;;;;;;;;7.50;99.90;;;7.80;73.21;100231.69;5529348;26;19931;-81
2024/04/18 01:44:46;;;;;;;;;;;7.50;99.90;;;7.83;73.24;100230.50;5532959;25;20375;-81
2024/04/18 01:47:31;;;;;;;;;;;7.50;99.90;;;7.83;72.94;100233.97;5497115;26;19977;-84
2024/04/18 01:50:09;;;;;;;;;;;7.60;99.90;;;7.83;72.68;100230.50;5497034;26;19932;-84
2024/04/18 01:52:36;;;;;;;;;;;7.50;99.90;;;7.81;72.98;100232.50;5493609;26;20371;-81
2024/04/18 01:55:04;;;;;;;;;;;7.40;99.90;;;7.79;73.26;100239.88;5494046;26;19935;-81
2024/04/18 01:57:40;;;;;;;;;;;7.50;99.90;;;7.78;72.66;100235.56;5494214;26;19928;-83
2024/04/18 02:00:28;;;;;;;;;;;7.50;99.90;;;7.77;72.57;100234.75;5521737;26;19996;-82
2024/04/18 02:02:54;;;;;;;;;;;7.40;99.90;;;7.75;72.70;100242.09;5532833;25;19994;-82
2024/04/18 02:05:45;;;;;;;;;;;7.40;99.90;;;7.74;73.03;100243.09;5522046;26;19927;-82
2024/04/18 02:08:15;;;;;;;;;;;7.40;99.90;;;7.71;72.26;100247.00;5532978;26;19936;-81
2024/04/18 02:10:47;;;;;;;;;;;7.40;99.90;;;7.68;72.37;100239.41;5532515;26;19934;-82
2024/04/18 02:13:34;;;;;;;;;;;7.40;99.90;;;7.65;72.56;100237.16;5533709;26;19976;-82
2024/04/18 02:16:03;;;;;;;;;;;7.30;99.90;;;7.66;72.51;100248.56;5532523;25;19962;-81
2024/04/18 02:18:48;;;;;;;;;;;7.30;99.90;;;7.64;72.32;100245.31;5532647;26;19935;-81
2024/04/18 02:21:17;;;;;;;;;;;7.30;99.90;;;7.64;72.63;100248.78;5533632;26;19940;-82
2024/04/18 02:23:52;;;;;;;;;;;7.30;99.90;;;7.65;72.52;100249.59;5533229;25;20378;-81
2024/04/18 02:26:21;;;;;;;;;;;7.30;99.90;;;7.65;72.68;100247.75;5532496;26;19928;-82
2024/04/18 02:28:50;;;;;;;;;;;7.30;99.90;;;7.64;73.06;100248.78;5532758;26;19935;-82
2024/04/18 02:31:19;;;;;;;;;;;7.30;99.90;;;7.66;73.05;100253.88;5532848;25;19927;-82
2024/04/18 02:33:53;;;;;;;;;;;7.30;99.90;;;7.65;72.40;100247.75;5532221;26;19928;-82
2024/04/18 02:36:21;;;;;;;;;;;7.40;99.90;;;7.64;72.72;100248.78;5532390;25;20367;-82
2024/04/18 02:38:47;;;;;;;;;;;7.30;99.90;;;7.65;72.45;100250.41;5532949;26;19927;-81
2024/04/18 02:41:16;;;;;;;;;;;7.30;99.90;;;7.65;72.50;100257.56;5532330;26;19935;-82
2024/04/18 02:43:53;;;;;;;;;;;7.30;99.90;;;7.60;72.88;100257.34;5532680;26;19928;-81
2024/04/18 02:46:22;;;;;;;;;;;7.30;99.90;;;7.62;72.98;100264.09;5518046;26;20401;-81
2024/04/18 02:49:07;;;;;;;;;;;7.30;99.90;;;7.65;72.70;100273.50;5496998;26;19935;-81
2024/04/18 02:51:36;;;;;;;;;;;7.30;99.90;;;7.65;72.62;100273.50;5495927;26;19928;-81
2024/04/18 02:54:34;;;;;;;;;;;7.30;99.90;;;7.66;72.89;100272.47;5494217;26;20387;-82
2024/04/18 02:57:02;;;;;;;;;;;7.30;99.90;;;7.67;73.21;100282.91;5495661;26;19934;-82
2024/04/18 02:59:31;;;;;;;;;;;7.30;99.90;;;7.66;72.60;100281.28;5496427;26;19935;-81
2024/04/18 03:02:20;;;;;;;;;;;7.30;99.90;;;7.64;72.88;100287.78;5495486;26;20302;-81
2024/04/18 03:04:46;;;;;;;;;;;7.30;99.90;;;7.64;72.70;100296.56;5495656;26;20375;-81
2024/04/18 03:07:15;;;;;;;;;;;7.30;99.90;;;7.64;73.24;100298.41;5494830;26;19928;-81
2024/04/18 03:09:47;;;;;;;;;;;7.30;99.90;;;7.65;72.98;100297.38;5495422;26;19927;-81
2024/04/18 03:12:27;;;;;;;;;;;7.30;99.90;;;7.64;73.07;100304.53;5494505;26;20380;-81
2024/04/18 03:15:22;;;;;;;;;;;7.30;99.90;;;7.62;72.54;100293.28;5524251;26;19934;-82
2024/04/18 03:18:09;;;;;;;;;;;7.30;99.90;;;7.64;72.74;100301.88;5532251;26;20024;-82
2024/04/18 03:20:36;;;;;;;;;;;7.30;99.90;;;7.61;72.62;100296.97;5531499;25;19930;-84
2024/04/18 03:23:08;;;;;;;;;;;7.30;99.90;;;7.61;72.46;100307.59;5529568;26;19928;-82
2024/04/18 03:25:54;;;;;;;;;;;7.30;99.90;;;7.62;72.69;100306.56;5531274;26;19939;-82
2024/04/18 03:28:23;;;;;;;;;;;7.30;99.90;;;7.62;72.69;100305.75;5531130;25;20003;-82
2024/04/18 03:30:52;;;;;;;;;;;7.30;99.90;;;7.61;72.66;100304.09;5530813;26;19928;-82
2024/04/18 03:33:21;;;;;;;;;;;7.30;99.90;;;7.62;72.67;100306.56;5528902;26;20275;-82
2024/04/18 03:35:47;;;;;;;;;;;7.30;99.90;;;7.60;72.86;100311.22;5531170;26;19928;-82
2024/04/18 03:38:16;;;;;;;;;;;7.30;99.90;;;7.62;72.50;100311.88;5531313;25;19928;-82
2024/04/18 03:40:45;;;;;;;;;;;7.30;99.90;;;7.60;72.74;100311.22;5529053;26;19928;-82
2024/04/18 03:43:18;;;;;;;;;;;7.30;99.90;;;7.62;72.53;100314.53;5531273;25;19927;-82
2024/04/18 03:45:44;;;;;;;;;;;7.30;99.90;;;7.63;72.82;100312.69;5530717;25;19934;-82
2024/04/18 03:48:30;;;;;;;;;;;7.30;99.90;;;7.62;72.57;100309.22;5502212;26;19928;-82
2024/04/18 03:50:59;;;;;;;;;;;7.30;99.90;;;7.63;72.79;100310.03;5494069;26;19983;-82
2024/04/18 03:53:45;;;;;;;;;;;7.50;99.90;;;7.62;72.51;100313.72;5493751;26;19928;-82
2024/04/18 03:56:17;;;;;;;;;;;7.30;99.90;;;7.61;72.52;100317.34;5494919;26;20387;-82
2024/04/18 03:58:43;;;;;;;;;;;7.30;99.90;;;7.59;72.81;100322.06;5530531;26;19927;-82
2024/04/18 04:01:12;;;;;;;;;;;7.20;99.90;;;7.58;72.92;100331.84;5530460;25;20379;-82
2024/04/18 04:03:40;;;;;;;;;;;7.20;99.90;;;7.57;72.71;100330.22;5530622;26;19927;-82
2024/04/18 04:06:09;;;;;;;;;;;7.20;99.90;;;7.56;72.59;100323.25;5530011;26;19927;-82
2024/04/18 04:08:35;;;;;;;;;;;7.20;99.90;;;7.57;72.71;100335.53;5492318;26;19928;-82
2024/04/18 04:11:13;;;;;;;;;;;7.20;99.90;;;7.58;72.83;100341.66;5491503;26;19936;-82
2024/04/18 04:13:41;;;;;;;;;;;7.20;99.90;;;7.57;72.54;100346.13;5492564;26;20443;-82
2024/04/18 04:16:21;;;;;;;;;;;7.20;99.90;;;7.54;73.07;100349.16;5517551;26;19928;-85
2024/04/18 04:18:54;;;;;;;;;;;7.20;99.90;;;7.56;72.62;100354.28;5490442;26;19939;-85
2024/04/18 04:21:42;;;;;;;;;;;7.20;99.90;;;7.54;73.12;100353.66;5511722;26;19938;-84
2024/04/18 04:24:10;;;;;;;;;;;7.20;99.90;;;7.53;72.90;100360.81;5530831;26;19938;-83
2024/04/18 04:26:53;;;;;;;;;;;7.20;99.90;;;7.53;72.95;100367.94;5530816;26;19955;-85
2024/04/18 04:29:20;;;;;;;;;;;7.20;99.90;;;7.51;73.30;100362.81;5531514;26;19928;-86
2024/04/18 04:31:49;;;;;;;;;;;7.20;99.90;;;7.51;72.96;100362.81;5531725;25;19933;-84
2024/04/18 04:34:17;;;;;;;;;;;7.20;99.90;;;7.48;72.81;100369.34;5530848;25;20410;-83
2024/04/18 04:36:46;;;;;;;;;;;7.10;99.90;;;7.49;72.58;100376.28;5529841;26;19996;-83
2024/04/18 04:39:12;;;;;;;;;;;7.10;99.90;;;7.46;72.35;100373.19;5530042;25;19934;-84
2024/04/18 04:41:42;;;;;;;;;;;7.10;99.90;;;7.45;72.20;100390.13;5530340;25;19935;-84
2024/04/18 04:44:08;;;;;;;;;;;7.10;99.90;;;7.43;72.01;100387.69;5530305;26;19931;-84
2024/04/18 04:46:50;;;;;;;;;;;7.10;99.90;;;7.40;72.17;100392.53;5528627;26;19928;-85
2024/04/18 04:49:19;;;;;;;;;;;7.00;99.90;;;7.37;71.99;100401.72;5530602;25;20393;-84
2024/04/18 04:52:03;;;;;;;;;;;7.00;99.90;;;7.38;72.16;100399.88;5531394;26;20379;-84
2024/04/18 04:54:42;;;;;;;;;;;7.00;99.90;;;7.37;71.90;100409.69;5528402;26;19939;-85
2024/04/18 04:57:11;;;;;;;;;;;7.00;99.90;;;7.32;72.01;100400.63;5532338;26;19934;-85
2024/04/18 04:59:37;;;;;;;;;;;7.00;99.90;;;7.34;72.35;100419.84;5526399;25;20387;-85
2024/04/18 05:02:06;;;;;;;;;;;7.00;99.90;;;7.35;72.16;100419.66;5493840;26;19997;-85
2024/04/18 05:04:52;;;;;;;;;;;7.00;99.90;;;7.35;72.27;100411.69;5495714;26;19928;-86
2024/04/18 05:07:34;;;;;;;;;;;7.00;99.90;;;7.35;72.30;100424.94;5495856;26;19928;-86
2024/04/18 05:10:18;;;;;;;;;;;7.00;99.90;;;7.37;72.50;100432.72;5514863;26;19935;-86
2024/04/18 05:12:47;;;;;;;;;;;7.00;99.90;;;7.39;72.63;100439.47;5531010;26;19996;-85
2024/04/18 05:15:32;;;;;;;;;;;7.00;99.90;;;7.41;72.46;100441.94;5532134;26;19994;-83
2024/04/18 05:18:01;;;;;;;;;;;7.00;99.90;;;7.41;72.95;100444.59;5524355;26;19932;-82
2024/04/18 05:20:30;;;;;;;;;;;7.00;99.90;;;7.40;73.04;100451.72;5500221;25;19935;-83
2024/04/18 05:22:59;;;;;;;;;;;7.00;99.90;;;7.41;73.03;100457.84;5489617;26;19928;-81
2024/04/18 05:25:25;;;;;;;;;;;7.00;99.90;;;7.42;73.09;100459.53;5492011;26;19938;-82
2024/04/18 05:28:20;;;;;;;;;;;7.00;99.90;;;7.44;73.47;100462.78;5492151;26;20089;-82
2024/04/18 05:31:03;;;;;;;;;;;7.10;99.90;;;7.45;73.25;100461.78;5491706;26;20279;-81
2024/04/18 05:33:35;;;;;;;;;;;7.10;99.90;;;7.39;72.37;100468.66;5491110;26;19935;-81
2024/04/18 05:36:06;;;;;;;;;;;7.00;99.90;;;7.43;73.15;100472.59;5494687;26;19928;-83
2024/04/18 05:38:35;;;;;;;;;;;7.10;99.90;;;7.45;72.92;100475.03;5496775;26;20369;-82
2024/04/18 05:41:04;;;;;;;;;;;7.10;99.90;;;7.47;72.92;100479.16;5528462;26;19928;-82
2024/04/18 05:43:51;;;;;;;;;;;7.20;99.90;;;7.47;73.17;100484.47;5531045;26;19927;-82
2024/04/18 05:46:20;;;;;;;;;;;7.20;99.90;;;7.50;73.23;100488.56;5532035;26;20028;-83
2024/04/18 05:48:49;;;;;;;;;;;7.20;99.90;;;7.49;73.36;100493.03;5530758;26;19928;-82
2024/04/18 05:51:21;;;;;;;;;;;7.20;99.90;;;7.51;73.37;100502.63;5531890;26;19931;-82
2024/04/18 05:54:08;;;;;;;;;;;7.20;99.90;;;7.52;72.91;100505.13;5533505;26;19999;-82
2024/04/18 05:56:57;;;;;;;;;;;7.20;99.90;;;7.55;73.06;100510.03;5532343;26;20273;-83
2024/04/18 05:59:46;;;;;;;;;;;7.20;99.90;;;7.54;72.38;100508.41;5531704;26;19935;-82
2024/04/18 06:02:15;;;;;;;;;;;7.20;99.90;;;7.54;72.60;100510.22;5506612;25;20371;-82
2024/04/18 06:04:44;;;;;;;;;;;7.20;99.90;;;7.57;72.98;100512.50;5494599;26;19968;-82
2024/04/18 06:07:35;;;;;;;;;;;7.30;99.90;;;7.61;72.44;100519.06;5494401;26;19928;-82
2024/04/18 06:10:04;;;;;;;;;;;7.30;99.90;;;7.66;72.50;100520.16;5494741;26;20001;-82
2024/04/18 06:12:33;;;;;;;;;;;7.40;99.90;;;7.65;72.69;100512.38;5494805;26;20383;-82
2024/04/18 06:15:02;;;;;;;;;;;7.30;99.90;;;7.69;72.74;100513.63;5494447;26;19928;-82
2024/04/18 06:17:30;;;;;;;;;;;7.40;99.90;;;7.70;72.68;100526.69;5494151;26;20259;-82
2024/04/18 06:19:59;;;;;;;;;;;7.40;99.90;;;7.67;71.60;100532.41;5494191;26;19928;-82
2024/04/18 06:22:31;;;;;;;;;;;7.40;99.90;;;7.66;72.23;100536.09;5494528;26;19940;-82
2024/04/18 06:25:22;;;;;;;;;;;7.40;99.90;;;7.67;72.29;100532.41;5496679;26;19996;-82
2024/04/18 06:27:50;;;;;;;;;;;7.40;99.90;;;7.70;73.05;100539.16;5492441;26;19927;-82
2024/04/18 06:30:19;;;;;;;;;;;7.40;99.90;;;7.73;71.68;100542.25;5497983;26;19928;-82
2024/04/18 06:32:48;;;;;;;;;;;7.50;99.90;;;7.78;72.19;100543.53;5497744;26;19936;-82
2024/04/18 06:35:17;;;;;;;;;;;7.60;99.90;;;7.88;72.15;100546.66;5498021;26;19928;-83
2024/04/18 06:37:47;;;;;;;;;;;7.70;99.90;;;7.91;71.96;100546.31;5496640;26;19928;-82
2024/04/18 06:40:19;;;;;;;;;;;7.70;99.90;;;7.90;70.86;100547.28;5494573;26;20267;-83
2024/04/18 06:42:55;;;;;;;;;;;7.70;99.90;;;7.90;71.29;100557.91;5496317;26;19928;-84
2024/04/18 06:45:24;;;;;;;;;;;7.70;99.90;;;7.85;71.15;100566.44;5496903;26;19932;-82
2024/04/18 06:47:53;;;;;;;;;;;7.60;99.90;;;7.81;70.55;100565.22;5497137;26;19935;-82
2024/04/18 06:50:22;;;;;;;;;;;7.60;99.90;;;7.80;69.86;100565.38;5497128;26;19954;-82
2024/04/18 06:52:51;;;;;;;;;;;7.60;99.90;;;7.83;70.63;100571.13;5497023;26;19935;-82
2024/04/18 06:55:21;;;;;;;;;;;7.60;99.90;;;7.86;70.83;100562.81;5497117;26;20375;-82
2024/04/18 06:57:53;;;;;;;;;;;7.60;99.90;;;7.86;70.48;100569.94;5510951;26;19939;-82
2024/04/18 07:00:22;;;;;;;;;;;7.60;99.90;;;7.84;69.17;100572.78;5534387;26;19928;-82
2024/04/18 07:02:50;;;;;;;;;;;7.60;99.90;;;7.84;69.77;100567.47;5534539;26;19931;-82
2024/04/18 07:05:38;;;;;;;;;;;7.60;99.90;;;7.84;69.62;100574.63;5535894;26;20393;-82
2024/04/18 07:08:26;;;;;;;;;;;7.60;99.90;;;7.88;70.69;100578.53;5532744;26;20270;-82
2024/04/18 07:10:55;;;;;;;;;;;7.60;99.90;;;7.88;69.97;100576.69;5534082;25;19935;-82
2024/04/18 07:13:33;;;;;;;;;;;7.60;99.90;;;7.92;70.01;100577.16;5534659;25;19942;-82
2024/04/18 07:16:05;;;;;;;;;;;7.70;99.90;;;7.94;68.95;100593.69;5535378;26;19927;-82
2024/04/18 07:18:53;;;;;;;;;;;7.70;99.90;;;7.97;69.56;100590.66;5535230;26;19938;-82
2024/04/18 07:21:22;;;;;;;;;;;7.70;99.90;;;7.99;68.84;100596.59;5534159;25;19990;-82
2024/04/18 07:23:50;;;;;;;;;;;7.80;99.90;;;8.01;68.91;100586.63;5534334;26;19927;-82
2024/04/18 07:26:38;;;;;;;;;;;7.80;99.90;;;8.13;70.15;100593.03;5509075;26;19936;-82
2024/04/18 07:29:11;;;;;;;;;;;7.90;99.90;;;8.17;69.36;100599.63;5497210;26;19928;-82
2024/04/18 07:31:39;;;;;;;;;;;8.00;99.90;;;8.17;67.97;100596.97;5497204;26;19928;-82
2024/04/18 07:34:14;;;;;;;;;;;8.00;99.90;;;8.25;68.74;100604.81;5497361;26;19928;-82
2024/04/18 07:36:43;;;;;;;;;;;8.10;99.90;;;8.24;67.38;100600.47;5497415;26;20398;-82
2024/04/18 07:39:12;;;;;;;;;;;8.10;99.90;;;8.29;68.15;100599.91;5495457;26;19934;-82
2024/04/18 07:41:41;;;;;;;;;;;8.10;99.90;;;8.29;67.71;100610.53;5496727;26;19930;-82
2024/04/18 07:44:12;;;;;;;;;;;8.20;99.90;;;8.32;68.80;100619.97;5496992;26;19928;-82
2024/04/18 07:46:41;;;;;;;;;;;8.20;99.90;;;8.30;69.07;100622.00;5496830;26;19928;-82
2024/04/18 07:49:07;;;;;;;;;;;8.20;99.90;;;8.31;69.40;100621.00;5496897;26;19935;-82
2024/04/18 07:51:37;;;;;;;;;;;8.20;99.90;;;8.18;66.94;100624.34;5496796;26;19928;-82
2024/04/18 07:54:05;;;;;;;;;;;8.00;99.90;;;8.12;66.54;100635.75;5497717;26;20043;-82
2024/04/18 07:56:34;;;;;;;;;;;7.90;99.90;;;8.14;66.72;100634.53;5496523;26;19938;-82
2024/04/18 07:59:03;;;;;;;;;;;8.00;99.90;;;8.15;67.02;100632.69;5497026;26;19927;-82
2024/04/18 08:01:35;;;;;;;;;;;8.00;99.90;;;8.15;67.52;100633.53;5496532;26;19931;-82
2024/04/18 08:04:04;;;;;;;;;;;8.00;99.90;;;8.19;66.90;100640.09;5497351;26;19928;-82
2024/04/18 08:06:33;;;;;;;;;;;8.00;99.90;;;8.24;68.07;100636.84;5495494;26;19996;-82
2024/04/18 08:09:04;;;;;;;;;;;8.10;99.90;;;8.38;68.65;100636.00;5497027;26;19928;-82
2024/04/18 08:11:32;;;;;;;;;;;8.20;99.90;;;8.54;65.95;100639.38;5496705;26;19928;-82
2024/04/18 08:14:01;;;;;;;;;;;8.40;99.90;;;8.72;66.05;100647.69;5497160;26;19927;-82
2024/04/18 08:16:30;;;;;;;;;;;8.60;99.90;;;8.79;66.21;100642.44;5496470;26;19935;-82
2024/04/18 08:19:01;;;;;;;;;;;8.70;99.90;;;8.74;64.06;100648.31;5495433;26;19940;-82
2024/04/18 08:21:30;;;;;;;;;;;8.70;99.90;;;8.65;64.14;100654.81;5496149;26;19928;-83
2024/04/18 08:24:01;;;;;;;;;;;8.50;99.90;;;8.64;64.96;100659.31;5494234;26;19935;-87
2024/04/18 08:26:30;;;;;;;;;;;8.50;99.90;;;8.65;64.85;100668.91;5492480;26;19954;-84
2024/04/18 08:28:59;;;;;;;;;;;8.50;99.90;;;8.70;66.16;100671.81;5494173;26;19928;-84
2024/04/18 08:31:28;;;;;;;;;;;8.60;99.90;;;8.76;65.37;100668.38;5493081;26;19927;-85
2024/04/18 08:33:57;;;;;;;;;;;8.70;99.90;;;8.84;65.11;100677.22;5492763;26;19935;-85
2024/04/18 08:36:29;;;;;;;;;;;8.70;99.90;;;8.94;65.01;100675.88;5492982;26;20283;-85
2024/04/18 08:38:58;;;;;;;;;;;8.90;99.90;;;9.08;65.60;100676.78;5491287;26;19935;-86
2024/04/18 08:41:27;;;;;;;;;;;9.10;99.90;;;9.18;62.97;100668.44;5492947;26;19928;-85
2024/04/18 08:43:56;;;;;;;;;;;9.20;99.90;;;9.23;64.11;100666.00;5492629;26;19928;-85
2024/04/18 08:46:25;;;;;;;;;;;9.30;99.90;;;9.36;65.02;100665.22;5492376;26;19928;-85
2024/04/18 08:48:54;;;;;;;;;;;9.40;99.90;;;9.39;63.34;100672.81;5505718;26;19975;-85
2024/04/18 08:51:23;;;;;;;;;;;9.50;99.90;;;9.49;65.14;100675.94;5529826;26;19936;-85
2024/04/18 08:53:55;;;;;;;;;;;9.60;99.90;;;9.54;63.62;100663.66;5529930;26;19934;-85
2024/04/18 08:56:25;;;;;;;;;;;9.70;99.90;;;9.61;62.68;100663.66;5529453;25;19928;-85
2024/04/18 08:58:54;;;;;;;;;;;9.80;99.90;;;9.59;60.77;100672.88;5529556;25;19935;-85
2024/04/18 09:01:23;;;;;;;;;;;9.70;99.90;;;9.61;60.61;100674.31;5500753;26;19940;-85
2024/04/18 09:03:56;;;;;;;;;;;9.80;99.90;;;9.68;61.96;100667.19;5493812;26;19928;-85
2024/04/18 09:06:25;;;;;;;;;;;9.80;99.90;;;9.78;62.56;100664.16;5492476;26;19938;-85
2024/04/18 09:09:00;;;;;;;;;;;9.90;99.90;;;9.84;62.23;100667.84;5492714;26;19944;-85
2024/04/18 09:11:29;;;;;;;;;;;10.00;99.90;;;9.73;61.65;100664.75;5500524;26;19937;-82
2024/04/18 09:13:58;;;;;;;;;;;9.90;99.90;;;9.66;62.50;100671.91;5532486;26;20022;-82
2024/04/18 09:16:27;;;;;;;;;;;9.80;99.90;;;9.64;62.31;100679.25;5532364;26;19928;-82
2024/04/18 09:18:56;;;;;;;;;;;9.70;99.90;;;9.59;62.36;100673.72;5532167;26;19934;-82
2024/04/18 09:21:29;;;;;;;;;;;9.70;99.90;;;9.51;63.31;100674.69;5532319;25;19935;-82
2024/04/18 09:24:00;;;;;;;;;;;9.60;99.90;;;9.47;63.13;100675.31;5532104;25;19934;-82
2024/04/18 09:26:29;;;;;;;;;;;9.50;99.90;;;9.43;63.53;100679.41;5532351;26;19931;-82
2024/04/18 09:29:00;;;;;;;;;;;9.40;99.90;;;9.33;64.32;100677.09;5531493;26;19927;-82
2024/04/18 09:31:29;;;;;;;;;;;9.40;99.90;;;9.37;63.70;100683.66;5531972;25;19931;-82
2024/04/18 09:33:59;;;;;;;;;;;9.40;99.90;;;9.52;63.03;100683.53;5530546;25;19939;-82
2024/04/18 09:36:28;;;;;;;;;;;9.60;99.90;;;9.76;64.46;100682.16;5531277;26;19928;-82
2024/04/18 09:39:02;;;;;;;;;;;9.90;99.90;;;9.78;60.61;100686.28;5531641;25;19935;-82
2024/04/18 09:41:35;;;;;;;;;;;9.90;99.90;;;9.73;60.14;100694.03;5494613;26;19927;-82
2024/04/18 09:44:10;;;;;;;;;;;9.80;99.90;;;9.63;59.72;100696.25;5494819;26;19948;-82
2024/04/18 09:46:39;;;;;;;;;;;9.70;99.90;;;9.57;59.54;100690.91;5494080;26;19935;-82
2024/04/18 09:49:08;;;;;;;;;;;9.70;99.90;;;9.72;58.79;100691.59;5495274;26;19935;-82
2024/04/18 09:51:37;;;;;;;;;;;9.80;99.90;;;9.89;58.69;100686.69;5494203;26;19932;-82
2024/04/18 09:54:09;;;;;;;;;;;10.00;99.90;;;10.01;58.92;100691.25;5494365;26;19928;-82
2024/04/18 09:56:39;;;;;;;;;;;10.20;99.90;;;10.05;59.96;100686.31;5494645;26;19936;-82
2024/04/18 09:59:08;;;;;;;;;;;10.20;99.90;;;10.03;61.24;100699.03;5497969;26;19935;-82
2024/04/18 10:01:38;;;;;;;;;;;10.20;99.90;;;9.95;60.45;100692.03;5531728;26;20025;-82
2024/04/18 10:04:07;;;;;;;;;;;10.10;99.90;;;9.88;59.07;100693.88;5532575;25;19927;-82
2024/04/18 10:06:38;;;;;;;;;;;10.00;99.90;;;9.91;59.43;100698.00;5537659;26;19934;-82
2024/04/18 10:09:12;;;;;;;;;;;10.00;99.90;;;10.00;56.95;100704.75;5532921;26;19928;-82
2024/04/18 10:11:42;;;;;;;;;;;10.10;99.90;;;10.06;56.23;100695.97;5535386;26;20023;-82
2024/04/18 10:14:10;;;;;;;;;;;10.20;99.90;;;10.17;55.59;100695.38;5534236;26;19928;-82
2024/04/18 10:16:48;;;;;;;;;;;10.30;99.90;;;10.28;56.38;100693.97;5535255;26;20281;-82
2024/04/18 10:19:21;;;;;;;;;;;10.50;99.90;;;10.40;54.55;100691.53;5527453;26;19935;-82
2024/04/18 10:21:54;;;;;;;;;;;10.60;99.90;;;10.49;53.51;100692.97;5498027;26;19948;-83
2024/04/18 10:24:31;;;;;;;;;;;10.70;99.90;;;10.34;50.03;100690.50;5498446;26;19928;-83
2024/04/18 10:27:02;;;;;;;;;;;10.60;99.90;;;10.25;50.89;100694.41;5496683;26;19960;-84
2024/04/18 10:29:31;;;;;;;;;;;10.50;99.90;;;10.33;50.14;100699.50;5495443;26;19973;-83
2024/04/18 10:32:00;;;;;;;;;;;10.50;99.90;;;10.39;51.76;100695.22;5493720;26;19928;-83
2024/04/18 10:34:29;;;;;;;;;;;10.60;99.90;;;10.40;49.74;100683.53;5492967;26;20053;-83
2024/04/18 10:36:59;;;;;;;;;;;10.60;99.90;;;10.45;50.72;100689.91;5494451;26;20410;-83
2024/04/18 10:39:37;;;;;;;;;;;10.70;99.90;;;10.50;49.59;100695.44;5496194;26;19935;-83
2024/04/18 10:42:05;;;;;;;;;;;10.70;99.90;;;10.51;49.83;100685.59;5495887;26;20375;-83
2024/04/18 10:44:35;;;;;;;;;;;10.70;99.90;;;10.52;48.45;100688.03;5495924;26;19935;-83
2024/04/18 10:47:04;;;;;;;;;;;10.70;99.90;;;10.57;50.48;100693.56;5496598;26;19931;-83
2024/04/18 10:49:30;;;;;;;;;;;10.80;99.90;;;10.63;50.19;100699.94;5495181;26;19928;-82
2024/04/18 10:51:59;;;;;;;;;;;10.90;99.90;;;10.68;49.86;100686.78;5494674;26;19935;-83
2024/04/18 10:54:29;;;;;;;;;;;10.90;99.90;;;10.62;48.60;100692.97;5496085;26;19960;-83
2024/04/18 10:57:00;;;;;;;;;;;10.90;99.90;;;10.61;50.31;100694.00;5496759;26;19935;-83
2024/04/18 10:59:29;;;;;;;;;;;10.90;99.90;;;10.58;48.85;100699.72;5496840;26;19928;-82
2024/04/18 11:02:05;;;;;;;;;;;10.80;99.90;;;10.64;49.74;100700.75;5496541;26;19928;-83
2024/04/18 11:04:35;;;;;;;;;;;10.90;99.90;;;10.68;51.21;100701.97;5513880;26;19927;-82
2024/04/18 11:07:04;;;;;;;;;;;10.90;99.90;;;10.56;51.60;100699.94;5533703;25;19936;-82
2024/04/18 11:09:35;;;;;;;;;;;10.80;99.90;;;10.53;50.92;100704.84;5533815;26;19927;-82
2024/04/18 11:12:07;;;;;;;;;;;10.80;99.90;;;10.48;50.84;100713.47;5533860;26;20386;-82
2024/04/18 11:14:36;;;;;;;;;;;10.70;99.90;;;10.45;50.52;100707.75;5533475;25;20389;-82
2024/04/18 11:17:05;;;;;;;;;;;10.60;99.90;;;10.41;51.65;100707.31;5530767;26;19935;-82
2024/04/18 11:19:34;;;;;;;;;;;10.60;99.90;;;10.43;50.70;100701.78;5533250;25;19933;-82
2024/04/18 11:22:04;;;;;;;;;;;10.50;99.90;;;10.41;51.39;100695.84;5533191;25;19927;-82
2024/04/18 11:24:32;;;;;;;;;;;10.50;99.90;;;10.43;52.87;100699.13;5533303;26;19927;-82
2024/04/18 11:27:08;;;;;;;;;;;10.50;99.90;;;10.51;51.97;100690.91;5523167;26;20378;-83
2024/04/18 11:29:37;;;;;;;;;;;10.60;99.90;;;10.67;51.23;100695.84;5531580;26;19927;-83
2024/04/18 11:32:08;;;;;;;;;;;10.80;99.90;;;10.89;52.64;100709.78;5525897;26;19935;-82
2024/04/18 11:34:39;;;;;;;;;;;11.10;99.90;;;10.93;47.59;100707.50;5496441;26;19936;-82
2024/04/18 11:37:09;;;;;;;;;;;11.10;99.90;;;10.79;45.71;100699.53;5496366;26;19928;-82
2024/04/18 11:39:39;;;;;;;;;;;11.00;99.90;;;10.82;48.35;100698.28;5495921;26;20272;-82
2024/04/18 11:42:10;;;;;;;;;;;11.00;99.90;;;10.99;49.93;100702.16;5493971;26;20001;-82
2024/04/18 11:44:36;;;;;;;;;;;11.20;99.90;;;11.13;48.92;100699.47;5496626;26;19928;-83
2024/04/18 11:47:05;;;;;;;;;;;11.40;99.90;;;11.11;47.26;100702.34;5496179;26;19928;-82